sensor_id;sensor_type;location;lat;lon;timestamp;temperature;humidity
13850;DHT22;6995;52.618;13.488;2023-07-31T00:01:05;16.00;1.00
13850;DHT22;6995;52.618;13.488;2023-07-31T00:03:31;15.90;1.00
13850;DHT22;6995;52.618;13.488;2023-07-31T00:05:57;15.90;1.00
13850;DHT22;6995;52.618;13.488;2023-07-31T00:08:23;15.90;1.00
13850;DHT22;6995;52.618;13.488;2023-07-31T00:10:51;15.90;1.00
13850;DHT22;6995;52.618;13.488;2023-07-31T00:13:18;15.80;1.00
13850;DHT22;6995;52.618;13.488;2023-07-31T00:15:44;15.80;1.00
13850;DHT22;6995;52.618;13.488;2023-07-31T00:18:09;15.70;1.00
13850;DHT22;6995;52.618;13.488;2023-07-31T00:20:35;15.70;1.00
13850;DHT22;6995;52.618;13.488;2023-07-31T00:23:01;15.70;1.00
13850;DHT22;6995;52.618;13.488;2023-07-31T00:25:26;15.70;1.00
13850;DHT22;6995;52.618;13.488;2023-07-31T00:27:52;15.70;1.00
13850;DHT22;6995;52.618;13.488;2023-07-31T00:30:18;15.60;1.00
13850;DHT22;6995;52.618;13.488;2023-07-31T00:32:43;15.60;1.00
13850;DHT22;6995;52.618;13.488;2023-07-31T00:35:09;15.70;1.00
13850;DHT22;6995;52.618;13.488;2023-07-31T00:37:35;15.60;1.00
13850;DHT22;6995;52.618;13.488;2023-07-31T00:40:00;15.60;1.00
13850;DHT22;6995;52.618;13.488;2023-07-31T00:42:26;15.60;1.00
13850;DHT22;6995;52.618;13.488;2023-07-31T00:44:52;15.60;1.00
13850;DHT22;6995;52.618;13.488;2023-07-31T00:47:17;15.60;1.00
13850;DHT22;6995;52.618;13.488;2023-07-31T00:49:44;15.70;1.00
13850;DHT22;6995;52.618;13.488;2023-07-31T00:52:10;15.70;1.00
13850;DHT22;6995;52.618;13.488;2023-07-31T00:54:36;15.80;1.00
13850;DHT22;6995;52.618;13.488;2023-07-31T00:57:02;15.90;1.00
13850;DHT22;6995;52.618;13.488;2023-07-31T00:59:28;15.90;1.00
13850;DHT22;6995;52.618;13.488;2023-07-31T01:01:54;15.90;1.00
13850;DHT22;6995;52.618;13.488;2023-07-31T01:04:20;15.90;1.00
13850;DHT22;6995;52.618;13.488;2023-07-31T01:09:44;16.00;1.00
13850;DHT22;6995;52.618;13.488;2023-07-31T01:12:15;16.00;1.00
13850;DHT22;6995;52.618;13.488;2023-07-31T01:14:51;16.10;1.00
13850;DHT22;6995;52.618;13.488;2023-07-31T01:17:17;16.00;1.00
13850;DHT22;6995;52.618;13.488;2023-07-31T01:19:42;16.00;1.00
13850;DHT22;6995;52.618;13.488;2023-07-31T01:22:46;16.00;1.00
13850;DHT22;6995;52.618;13.488;2023-07-31T01:28:11;16.00;1.00
13850;DHT22;6995;52.618;13.488;2023-07-31T01:30:43;16.00;1.00
13850;DHT22;6995;52.618;13.488;2023-07-31T01:33:10;16.10;1.00
13850;DHT22;6995;52.618;13.488;2023-07-31T01:35:37;16.10;1.00
13850;DHT22;6995;52.618;13.488;2023-07-31T01:38:03;16.00;1.00
13850;DHT22;6995;52.618;13.488;2023-07-31T01:40:29;16.00;1.00
13850;DHT22;6995;52.618;13.488;2023-07-31T01:42:55;16.10;1.00
13850;DHT22;6995;52.618;13.488;2023-07-31T01:45:21;16.10;1.00
13850;DHT22;6995;52.618;13.488;2023-07-31T01:47:47;16.10;1.00
13850;DHT22;6995;52.618;13.488;2023-07-31T01:50:12;16.20;1.00
13850;DHT22;6995;52.618;13.488;2023-07-31T01:52:38;16.20;1.00
13850;DHT22;6995;52.618;13.488;2023-07-31T01:55:04;16.20;1.00
13850;DHT22;6995;52.618;13.488;2023-07-31T01:57:30;16.20;1.00
13850;DHT22;6995;52.618;13.488;2023-07-31T01:59:56;16.20;1.00
13850;DHT22;6995;52.618;13.488;2023-07-31T02:02:22;16.20;1.00
13850;DHT22;6995;52.618;13.488;2023-07-31T02:04:48;16.30;1.00
13850;DHT22;6995;52.618;13.488;2023-07-31T02:07:14;16.30;1.00
13850;DHT22;6995;52.618;13.488;2023-07-31T02:09:40;16.30;1.00
13850;DHT22;6995;52.618;13.488;2023-07-31T02:12:05;16.30;1.00
13850;DHT22;6995;52.618;13.488;2023-07-31T02:14:34;16.30;1.00
13850;DHT22;6995;52.618;13.488;2023-07-31T02:17:00;16.30;1.00
13850;DHT22;6995;52.618;13.488;2023-07-31T02:19:25;16.30;1.00
13850;DHT22;6995;52.618;13.488;2023-07-31T02:21:51;16.30;1.00
13850;DHT22;6995;52.618;13.488;2023-07-31T02:24:16;16.40;1.00
13850;DHT22;6995;52.618;13.488;2023-07-31T02:26:42;16.40;1.00
13850;DHT22;6995;52.618;13.488;2023-07-31T02:29:08;16.40;1.00
13850;DHT22;6995;52.618;13.488;2023-07-31T02:31:34;16.40;1.00
13850;DHT22;6995;52.618;13.488;2023-07-31T02:34:00;16.50;1.00
13850;DHT22;6995;52.618;13.488;2023-07-31T02:36:25;16.40;1.00
13850;DHT22;6995;52.618;13.488;2023-07-31T02:38:51;16.40;1.00
13850;DHT22;6995;52.618;13.488;2023-07-31T02:41:16;16.40;1.00
13850;DHT22;6995;52.618;13.488;2023-07-31T02:43:42;16.40;1.00
13850;DHT22;6995;52.618;13.488;2023-07-31T02:46:08;16.50;1.00
13850;DHT22;6995;52.618;13.488;2023-07-31T02:48:33;16.40;1.00
13850;DHT22;6995;52.618;13.488;2023-07-31T02:50:59;16.50;1.00
13850;DHT22;6995;52.618;13.488;2023-07-31T02:53:25;16.40;1.00
13850;DHT22;6995;52.618;13.488;2023-07-31T02:55:50;16.30;1.00
13850;DHT22;6995;52.618;13.488;2023-07-31T02:58:16;16.30;1.00
13850;DHT22;6995;52.618;13.488;2023-07-31T03:00:42;16.30;1.00
13850;DHT22;6995;52.618;13.488;2023-07-31T03:03:08;16.30;1.00
13850;DHT22;6995;52.618;13.488;2023-07-31T03:05:33;16.30;1.00
13850;DHT22;6995;52.618;13.488;2023-07-31T03:07:59;16.40;1.00
13850;DHT22;6995;52.618;13.488;2023-07-31T03:10:25;16.40;1.00
13850;DHT22;6995;52.618;13.488;2023-07-31T03:12:50;16.40;1.00
13850;DHT22;6995;52.618;13.488;2023-07-31T03:15:16;16.40;1.00
13850;DHT22;6995;52.618;13.488;2023-07-31T03:17:42;16.50;1.00
13850;DHT22;6995;52.618;13.488;2023-07-31T03:20:08;16.50;1.00
13850;DHT22;6995;52.618;13.488;2023-07-31T03:22:34;16.50;1.00
13850;DHT22;6995;52.618;13.488;2023-07-31T03:25:01;16.50;1.00
13850;DHT22;6995;52.618;13.488;2023-07-31T03:27:26;16.50;1.00
13850;DHT22;6995;52.618;13.488;2023-07-31T03:29:52;16.60;1.00
13850;DHT22;6995;52.618;13.488;2023-07-31T03:32:18;16.50;1.00
13850;DHT22;6995;52.618;13.488;2023-07-31T03:34:43;16.60;1.00
13850;DHT22;6995;52.618;13.488;2023-07-31T03:37:09;16.60;1.00
13850;DHT22;6995;52.618;13.488;2023-07-31T03:39:35;16.50;1.00
13850;DHT22;6995;52.618;13.488;2023-07-31T03:42:01;16.40;1.00
13850;DHT22;6995;52.618;13.488;2023-07-31T03:44:26;16.30;1.00
13850;DHT22;6995;52.618;13.488;2023-07-31T03:46:52;16.20;1.00
13850;DHT22;6995;52.618;13.488;2023-07-31T03:49:17;16.20;1.00
13850;DHT22;6995;52.618;13.488;2023-07-31T03:51:43;16.20;1.00
13850;DHT22;6995;52.618;13.488;2023-07-31T03:54:09;16.20;1.00
13850;DHT22;6995;52.618;13.488;2023-07-31T03:56:34;16.30;1.00
13850;DHT22;6995;52.618;13.488;2023-07-31T03:59:00;16.30;1.00
13850;DHT22;6995;52.618;13.488;2023-07-31T04:01:26;16.20;1.00
13850;DHT22;6995;52.618;13.488;2023-07-31T04:03:52;16.20;1.00
13850;DHT22;6995;52.618;13.488;2023-07-31T04:06:17;16.30;1.00
13850;DHT22;6995;52.618;13.488;2023-07-31T04:08:44;16.30;1.00
13850;DHT22;6995;52.618;13.488;2023-07-31T04:11:10;16.40;1.00
13850;DHT22;6995;52.618;13.488;2023-07-31T04:13:37;16.30;1.00
13850;DHT22;6995;52.618;13.488;2023-07-31T04:16:02;16.30;1.00
13850;DHT22;6995;52.618;13.488;2023-07-31T04:18:28;16.30;1.00
13850;DHT22;6995;52.618;13.488;2023-07-31T04:20:56;16.40;1.00
13850;DHT22;6995;52.618;13.488;2023-07-31T04:23:23;16.40;1.00
13850;DHT22;6995;52.618;13.488;2023-07-31T04:25:49;16.40;1.00
13850;DHT22;6995;52.618;13.488;2023-07-31T04:28:15;16.40;1.00
13850;DHT22;6995;52.618;13.488;2023-07-31T04:30:40;16.50;1.00
13850;DHT22;6995;52.618;13.488;2023-07-31T04:33:06;16.50;1.00
13850;DHT22;6995;52.618;13.488;2023-07-31T04:35:32;16.50;1.00
13850;DHT22;6995;52.618;13.488;2023-07-31T04:37:57;16.50;1.00
13850;DHT22;6995;52.618;13.488;2023-07-31T04:40:23;16.50;1.00
13850;DHT22;6995;52.618;13.488;2023-07-31T04:42:48;16.50;1.00
13850;DHT22;6995;52.618;13.488;2023-07-31T04:45:14;16.50;1.00
13850;DHT22;6995;52.618;13.488;2023-07-31T04:47:40;16.60;1.00
13850;DHT22;6995;52.618;13.488;2023-07-31T04:50:06;16.60;1.00
13850;DHT22;6995;52.618;13.488;2023-07-31T04:52:32;16.60;1.00
13850;DHT22;6995;52.618;13.488;2023-07-31T04:54:58;16.60;1.00
13850;DHT22;6995;52.618;13.488;2023-07-31T04:57:23;16.60;1.00
13850;DHT22;6995;52.618;13.488;2023-07-31T04:59:49;16.60;1.00
13850;DHT22;6995;52.618;13.488;2023-07-31T05:02:15;16.70;1.00
13850;DHT22;6995;52.618;13.488;2023-07-31T05:04:40;16.70;1.00
13850;DHT22;6995;52.618;13.488;2023-07-31T05:07:06;16.70;1.00
13850;DHT22;6995;52.618;13.488;2023-07-31T05:09:32;16.80;1.00
13850;DHT22;6995;52.618;13.488;2023-07-31T05:11:57;16.90;1.00
13850;DHT22;6995;52.618;13.488;2023-07-31T05:14:23;16.90;1.00
13850;DHT22;6995;52.618;13.488;2023-07-31T05:16:49;16.90;1.00
13850;DHT22;6995;52.618;13.488;2023-07-31T05:19:14;16.90;1.00
13850;DHT22;6995;52.618;13.488;2023-07-31T05:21:40;16.90;1.00
13850;DHT22;6995;52.618;13.488;2023-07-31T05:24:06;17.00;1.00
13850;DHT22;6995;52.618;13.488;2023-07-31T05:26:32;17.10;1.00
13850;DHT22;6995;52.618;13.488;2023-07-31T05:28:57;17.10;1.00
13850;DHT22;6995;52.618;13.488;2023-07-31T05:31:23;17.20;1.00
13850;DHT22;6995;52.618;13.488;2023-07-31T05:33:50;17.30;1.00
13850;DHT22;6995;52.618;13.488;2023-07-31T05:36:16;17.50;1.00
13850;DHT22;6995;52.618;13.488;2023-07-31T05:38:42;17.60;1.00
13850;DHT22;6995;52.618;13.488;2023-07-31T05:41:11;17.60;1.00
13850;DHT22;6995;52.618;13.488;2023-07-31T05:43:36;17.70;1.00
13850;DHT22;6995;52.618;13.488;2023-07-31T05:46:02;17.70;1.00
13850;DHT22;6995;52.618;13.488;2023-07-31T05:48:28;17.70;1.00
13850;DHT22;6995;52.618;13.488;2023-07-31T05:50:53;17.80;1.00
13850;DHT22;6995;52.618;13.488;2023-07-31T05:53:19;17.70;1.00
13850;DHT22;6995;52.618;13.488;2023-07-31T05:55:45;17.70;1.00
13850;DHT22;6995;52.618;13.488;2023-07-31T05:58:10;17.60;1.00
13850;DHT22;6995;52.618;13.488;2023-07-31T06:00:36;17.60;1.00
13850;DHT22;6995;52.618;13.488;2023-07-31T06:03:02;17.60;1.00
13850;DHT22;6995;52.618;13.488;2023-07-31T06:05:28;17.60;1.00
13850;DHT22;6995;52.618;13.488;2023-07-31T06:07:55;17.60;1.00
13850;DHT22;6995;52.618;13.488;2023-07-31T06:10:21;17.60;1.00
13850;DHT22;6995;52.618;13.488;2023-07-31T06:12:47;17.60;1.00
13850;DHT22;6995;52.618;13.488;2023-07-31T06:15:12;17.60;1.00
13850;DHT22;6995;52.618;13.488;2023-07-31T06:17:38;17.70;1.00
13850;DHT22;6995;52.618;13.488;2023-07-31T06:20:05;17.80;1.00
13850;DHT22;6995;52.618;13.488;2023-07-31T06:22:31;17.90;1.00
13850;DHT22;6995;52.618;13.488;2023-07-31T06:24:57;17.90;1.00
13850;DHT22;6995;52.618;13.488;2023-07-31T06:27:23;17.90;1.00
13850;DHT22;6995;52.618;13.488;2023-07-31T06:29:50;18.00;1.00
13850;DHT22;6995;52.618;13.488;2023-07-31T06:32:16;18.10;1.00
13850;DHT22;6995;52.618;13.488;2023-07-31T06:34:42;18.10;1.00
13850;DHT22;6995;52.618;13.488;2023-07-31T06:37:07;18.20;1.00
13850;DHT22;6995;52.618;13.488;2023-07-31T06:39:33;18.30;1.00
13850;DHT22;6995;52.618;13.488;2023-07-31T06:41:59;18.50;1.00
13850;DHT22;6995;52.618;13.488;2023-07-31T06:44:24;18.40;1.00
13850;DHT22;6995;52.618;13.488;2023-07-31T06:46:51;18.40;1.00
13850;DHT22;6995;52.618;13.488;2023-07-31T06:49:17;18.40;1.00
13850;DHT22;6995;52.618;13.488;2023-07-31T06:51:43;18.30;1.00
13850;DHT22;6995;52.618;13.488;2023-07-31T06:54:09;18.30;1.00
13850;DHT22;6995;52.618;13.488;2023-07-31T06:56:38;18.30;1.00
13850;DHT22;6995;52.618;13.488;2023-07-31T06:59:04;18.30;1.00
13850;DHT22;6995;52.618;13.488;2023-07-31T07:01:29;18.40;1.00
13850;DHT22;6995;52.618;13.488;2023-07-31T07:03:55;18.40;1.00
13850;DHT22;6995;52.618;13.488;2023-07-31T07:06:22;18.10;1.00
13850;DHT22;6995;52.618;13.488;2023-07-31T07:08:48;18.30;1.00
13850;DHT22;6995;52.618;13.488;2023-07-31T07:11:14;18.50;1.00
13850;DHT22;6995;52.618;13.488;2023-07-31T07:13:40;18.40;1.00
13850;DHT22;6995;52.618;13.488;2023-07-31T07:16:05;18.40;1.00
13850;DHT22;6995;52.618;13.488;2023-07-31T07:18:31;18.00;1.00
13850;DHT22;6995;52.618;13.488;2023-07-31T07:20:56;17.70;1.00
13850;DHT22;6995;52.618;13.488;2023-07-31T07:23:23;17.50;1.00
13850;DHT22;6995;52.618;13.488;2023-07-31T07:25:49;17.70;1.00
13850;DHT22;6995;52.618;13.488;2023-07-31T07:28:16;17.80;1.00
13850;DHT22;6995;52.618;13.488;2023-07-31T07:30:42;17.80;1.00
13850;DHT22;6995;52.618;13.488;2023-07-31T07:33:07;17.80;1.00
13850;DHT22;6995;52.618;13.488;2023-07-31T07:35:34;17.90;1.00
13850;DHT22;6995;52.618;13.488;2023-07-31T07:38:01;17.80;1.00
13850;DHT22;6995;52.618;13.488;2023-07-31T07:40:27;18.00;1.00
13850;DHT22;6995;52.618;13.488;2023-07-31T07:42:52;18.10;1.00
13850;DHT22;6995;52.618;13.488;2023-07-31T07:45:18;18.10;1.00
13850;DHT22;6995;52.618;13.488;2023-07-31T07:47:44;17.90;1.00
13850;DHT22;6995;52.618;13.488;2023-07-31T07:50:09;18.20;1.00
13850;DHT22;6995;52.618;13.488;2023-07-31T07:52:35;18.20;1.00
13850;DHT22;6995;52.618;13.488;2023-07-31T07:55:01;18.10;99.90
13850;DHT22;6995;52.618;13.488;2023-07-31T07:57:27;18.30;1.00
13850;DHT22;6995;52.618;13.488;2023-07-31T07:59:52;18.40;99.90
13850;DHT22;6995;52.618;13.488;2023-07-31T08:02:18;18.40;99.90
13850;DHT22;6995;52.618;13.488;2023-07-31T08:04:44;18.50;99.90
13850;DHT22;6995;52.618;13.488;2023-07-31T08:07:12;18.60;99.90
13850;DHT22;6995;52.618;13.488;2023-07-31T08:09:38;18.30;99.90
13850;DHT22;6995;52.618;13.488;2023-07-31T08:12:05;18.30;99.90
13850;DHT22;6995;52.618;13.488;2023-07-31T08:14:31;18.50;99.90
13850;DHT22;6995;52.618;13.488;2023-07-31T08:16:56;18.60;99.90
13850;DHT22;6995;52.618;13.488;2023-07-31T08:19:22;18.50;99.90
13850;DHT22;6995;52.618;13.488;2023-07-31T08:21:48;18.50;99.90
13850;DHT22;6995;52.618;13.488;2023-07-31T08:24:13;18.30;99.90
13850;DHT22;6995;52.618;13.488;2023-07-31T08:26:39;18.40;99.90
13850;DHT22;6995;52.618;13.488;2023-07-31T08:29:05;18.30;1.00
13850;DHT22;6995;52.618;13.488;2023-07-31T08:31:30;18.10;1.00
13850;DHT22;6995;52.618;13.488;2023-07-31T08:33:56;17.90;1.00
13850;DHT22;6995;52.618;13.488;2023-07-31T08:36:22;18.00;1.00
13850;DHT22;6995;52.618;13.488;2023-07-31T08:38:47;18.10;1.00
13850;DHT22;6995;52.618;13.488;2023-07-31T08:41:13;18.20;1.00
13850;DHT22;6995;52.618;13.488;2023-07-31T08:43:39;18.00;1.00
13850;DHT22;6995;52.618;13.488;2023-07-31T08:46:06;17.90;1.00
13850;DHT22;6995;52.618;13.488;2023-07-31T08:48:32;17.90;1.00
13850;DHT22;6995;52.618;13.488;2023-07-31T08:50:58;17.90;1.00
13850;DHT22;6995;52.618;13.488;2023-07-31T08:53:24;18.10;1.00
13850;DHT22;6995;52.618;13.488;2023-07-31T08:55:52;18.30;1.00
13850;DHT22;6995;52.618;13.488;2023-07-31T08:58:19;18.20;1.00
13850;DHT22;6995;52.618;13.488;2023-07-31T09:00:46;18.20;1.00
13850;DHT22;6995;52.618;13.488;2023-07-31T09:03:17;18.40;1.00
13850;DHT22;6995;52.618;13.488;2023-07-31T09:05:45;18.60;1.00
13850;DHT22;6995;52.618;13.488;2023-07-31T09:08:12;18.70;1.40
13850;DHT22;6995;52.618;13.488;2023-07-31T09:10:45;18.80;99.90
13850;DHT22;6995;52.618;13.488;2023-07-31T09:13:15;18.70;99.90
13850;DHT22;6995;52.618;13.488;2023-07-31T09:15:44;18.90;99.90
13850;DHT22;6995;52.618;13.488;2023-07-31T09:18:11;18.80;99.90
13850;DHT22;6995;52.618;13.488;2023-07-31T09:20:37;18.80;99.90
13850;DHT22;6995;52.618;13.488;2023-07-31T09:23:13;18.90;99.90
13850;DHT22;6995;52.618;13.488;2023-07-31T09:25:43;18.70;99.90
13850;DHT22;6995;52.618;13.488;2023-07-31T09:28:10;18.50;1.40
13850;DHT22;6995;52.618;13.488;2023-07-31T09:30:48;18.60;1.00
13850;DHT22;6995;52.618;13.488;2023-07-31T09:33:14;19.20;99.90
13850;DHT22;6995;52.618;13.488;2023-07-31T09:35:40;19.50;99.90
13850;DHT22;6995;52.618;13.488;2023-07-31T09:38:09;19.20;99.90
13850;DHT22;6995;52.618;13.488;2023-07-31T09:40:36;19.30;99.90
13850;DHT22;6995;52.618;13.488;2023-07-31T09:43:13;19.50;99.90
13850;DHT22;6995;52.618;13.488;2023-07-31T09:45:44;19.10;99.90
13850;DHT22;6995;52.618;13.488;2023-07-31T09:48:14;18.70;1.00
13850;DHT22;6995;52.618;13.488;2023-07-31T09:50:46;18.40;1.00
13850;DHT22;6995;52.618;13.488;2023-07-31T09:53:12;18.20;1.00
13850;DHT22;6995;52.618;13.488;2023-07-31T09:55:39;18.10;1.00
13850;DHT22;6995;52.618;13.488;2023-07-31T09:58:07;18.10;1.00
13850;DHT22;6995;52.618;13.488;2023-07-31T10:00:33;18.00;1.00
13850;DHT22;6995;52.618;13.488;2023-07-31T10:03:00;18.00;1.00
13850;DHT22;6995;52.618;13.488;2023-07-31T10:05:50;18.10;1.00
13850;DHT22;6995;52.618;13.488;2023-07-31T10:08:16;18.50;1.00
13850;DHT22;6995;52.618;13.488;2023-07-31T10:10:44;18.70;1.00
13850;DHT22;6995;52.618;13.488;2023-07-31T10:13:10;19.10;1.00
13850;DHT22;6995;52.618;13.488;2023-07-31T10:15:36;19.40;99.90
13850;DHT22;6995;52.618;13.488;2023-07-31T10:18:02;19.70;99.90
13850;DHT22;6995;52.618;13.488;2023-07-31T10:20:31;19.90;99.90
13850;DHT22;6995;52.618;13.488;2023-07-31T10:22:57;20.00;99.90
13850;DHT22;6995;52.618;13.488;2023-07-31T10:25:26;19.90;99.90
13850;DHT22;6995;52.618;13.488;2023-07-31T10:27:58;19.70;99.90
13850;DHT22;6995;52.618;13.488;2023-07-31T10:30:26;19.20;99.90
13850;DHT22;6995;52.618;13.488;2023-07-31T10:32:53;18.80;99.90
13850;DHT22;6995;52.618;13.488;2023-07-31T10:35:20;18.90;99.90
13850;DHT22;6995;52.618;13.488;2023-07-31T10:37:47;19.00;99.90
13850;DHT22;6995;52.618;13.488;2023-07-31T10:40:19;19.10;1.00
13850;DHT22;6995;52.618;13.488;2023-07-31T10:42:55;19.10;99.90
13850;DHT22;6995;52.618;13.488;2023-07-31T10:45:32;18.80;99.90
13850;DHT22;6995;52.618;13.488;2023-07-31T10:50:29;18.50;1.00
13850;DHT22;6995;52.618;13.488;2023-07-31T10:52:56;18.50;1.00
13850;DHT22;6995;52.618;13.488;2023-07-31T10:58:04;18.50;1.00
13850;DHT22;6995;52.618;13.488;2023-07-31T11:00:31;18.90;1.00
13850;DHT22;6995;52.618;13.488;2023-07-31T11:03:03;19.30;1.00
13850;DHT22;6995;52.618;13.488;2023-07-31T11:10:43;20.30;99.90
13850;DHT22;6995;52.618;13.488;2023-07-31T11:13:09;20.60;99.90
13850;DHT22;6995;52.618;13.488;2023-07-31T11:15:34;21.30;99.90
13850;DHT22;6995;52.618;13.488;2023-07-31T11:18:01;21.80;99.90
13850;DHT22;6995;52.618;13.488;2023-07-31T11:20:36;21.30;99.90
13850;DHT22;6995;52.618;13.488;2023-07-31T11:23:04;21.30;99.90
13850;DHT22;6995;52.618;13.488;2023-07-31T11:25:31;20.70;99.90
13850;DHT22;6995;52.618;13.488;2023-07-31T11:28:04;20.80;99.90
13850;DHT22;6995;52.618;13.488;2023-07-31T11:30:30;20.90;99.90
13850;DHT22;6995;52.618;13.488;2023-07-31T11:32:56;21.10;99.90
13850;DHT22;6995;52.618;13.488;2023-07-31T11:35:22;21.20;99.90
13850;DHT22;6995;52.618;13.488;2023-07-31T11:37:48;21.10;99.90
13850;DHT22;6995;52.618;13.488;2023-07-31T11:40:14;20.90;99.90
13850;DHT22;6995;52.618;13.488;2023-07-31T11:42:40;20.90;99.90
13850;DHT22;6995;52.618;13.488;2023-07-31T11:45:09;21.00;99.90
13850;DHT22;6995;52.618;13.488;2023-07-31T11:47:38;21.50;99.90
13850;DHT22;6995;52.618;13.488;2023-07-31T11:50:05;21.80;99.90
13850;DHT22;6995;52.618;13.488;2023-07-31T11:52:40;21.40;99.90
13850;DHT22;6995;52.618;13.488;2023-07-31T11:55:08;21.10;99.90
13850;DHT22;6995;52.618;13.488;2023-07-31T11:57:37;21.10;99.90
13850;DHT22;6995;52.618;13.488;2023-07-31T12:00:04;21.30;99.90
13850;DHT22;6995;52.618;13.488;2023-07-31T12:02:31;21.30;99.90
13850;DHT22;6995;52.618;13.488;2023-07-31T12:04:56;21.20;99.90
13850;DHT22;6995;52.618;13.488;2023-07-31T12:07:24;21.20;99.90
13850;DHT22;6995;52.618;13.488;2023-07-31T12:09:55;21.00;99.90
13850;DHT22;6995;52.618;13.488;2023-07-31T12:12:23;21.00;99.90
13850;DHT22;6995;52.618;13.488;2023-07-31T12:14:49;21.20;99.90
13850;DHT22;6995;52.618;13.488;2023-07-31T12:17:16;21.30;99.90
13850;DHT22;6995;52.618;13.488;2023-07-31T12:19:42;21.00;99.90
13850;DHT22;6995;52.618;13.488;2023-07-31T12:22:12;20.80;99.90
13850;DHT22;6995;52.618;13.488;2023-07-31T12:24:39;20.50;99.90
13850;DHT22;6995;52.618;13.488;2023-07-31T12:27:10;20.30;99.90
13850;DHT22;6995;52.618;13.488;2023-07-31T12:29:36;19.70;99.90
13850;DHT22;6995;52.618;13.488;2023-07-31T12:32:01;19.40;99.90
13850;DHT22;6995;52.618;13.488;2023-07-31T12:34:27;19.00;99.90
13850;DHT22;6995;52.618;13.488;2023-07-31T12:36:54;19.00;99.90
13850;DHT22;6995;52.618;13.488;2023-07-31T12:39:19;19.10;99.90
13850;DHT22;6995;52.618;13.488;2023-07-31T12:41:45;19.10;99.90
13850;DHT22;6995;52.618;13.488;2023-07-31T12:44:11;19.10;99.90
13850;DHT22;6995;52.618;13.488;2023-07-31T12:46:37;19.00;99.90
13850;DHT22;6995;52.618;13.488;2023-07-31T12:49:02;18.90;99.90
13850;DHT22;6995;52.618;13.488;2023-07-31T12:51:28;19.10;99.90
13850;DHT22;6995;52.618;13.488;2023-07-31T12:53:54;19.30;99.90
13850;DHT22;6995;52.618;13.488;2023-07-31T12:56:19;19.60;99.90
13850;DHT22;6995;52.618;13.488;2023-07-31T12:58:45;20.00;99.90
13850;DHT22;6995;52.618;13.488;2023-07-31T13:01:11;20.30;99.90
13850;DHT22;6995;52.618;13.488;2023-07-31T13:03:36;20.50;99.90
13850;DHT22;6995;52.618;13.488;2023-07-31T13:06:03;20.50;99.90
13850;DHT22;6995;52.618;13.488;2023-07-31T13:08:28;20.30;99.90
13850;DHT22;6995;52.618;13.488;2023-07-31T13:10:54;20.00;99.90
13850;DHT22;6995;52.618;13.488;2023-07-31T13:13:20;19.70;99.90
13850;DHT22;6995;52.618;13.488;2023-07-31T13:15:45;19.50;99.90
13850;DHT22;6995;52.618;13.488;2023-07-31T13:18:11;19.40;1.40
13850;DHT22;6995;52.618;13.488;2023-07-31T13:20:37;19.40;99.90
13850;DHT22;6995;52.618;13.488;2023-07-31T13:23:02;19.30;1.00
13850;DHT22;6995;52.618;13.488;2023-07-31T13:25:28;19.00;1.00
13850;DHT22;6995;52.618;13.488;2023-07-31T13:27:54;18.70;1.00
13850;DHT22;6995;52.618;13.488;2023-07-31T13:30:20;18.70;1.00
13850;DHT22;6995;52.618;13.488;2023-07-31T13:32:46;18.90;1.00
13850;DHT22;6995;52.618;13.488;2023-07-31T13:35:11;19.10;1.00
13850;DHT22;6995;52.618;13.488;2023-07-31T13:37:37;19.50;1.00
13850;DHT22;6995;52.618;13.488;2023-07-31T13:40:03;19.80;99.90
13850;DHT22;6995;52.618;13.488;2023-07-31T13:42:30;20.40;1.00
13850;DHT22;6995;52.618;13.488;2023-07-31T13:44:56;20.40;99.90
13850;DHT22;6995;52.618;13.488;2023-07-31T13:47:22;20.30;99.90
13850;DHT22;6995;52.618;13.488;2023-07-31T13:49:47;20.30;99.90
13850;DHT22;6995;52.618;13.488;2023-07-31T13:52:13;20.40;99.90
13850;DHT22;6995;52.618;13.488;2023-07-31T13:54:39;20.60;99.90
13850;DHT22;6995;52.618;13.488;2023-07-31T13:57:04;21.00;99.90
13850;DHT22;6995;52.618;13.488;2023-07-31T13:59:30;21.70;99.90
13850;DHT22;6995;52.618;13.488;2023-07-31T14:01:56;22.20;99.90
13850;DHT22;6995;52.618;13.488;2023-07-31T14:04:21;22.50;99.90
13850;DHT22;6995;52.618;13.488;2023-07-31T14:06:47;22.40;99.90
13850;DHT22;6995;52.618;13.488;2023-07-31T14:09:13;22.20;99.90
13850;DHT22;6995;52.618;13.488;2023-07-31T14:11:39;21.90;99.90
13850;DHT22;6995;52.618;13.488;2023-07-31T14:14:05;21.90;99.90
13850;DHT22;6995;52.618;13.488;2023-07-31T14:16:31;21.80;99.90
13850;DHT22;6995;52.618;13.488;2023-07-31T14:18:56;21.50;99.90
13850;DHT22;6995;52.618;13.488;2023-07-31T14:21:25;21.60;99.90
13850;DHT22;6995;52.618;13.488;2023-07-31T14:23:51;21.40;99.90
13850;DHT22;6995;52.618;13.488;2023-07-31T14:26:16;21.40;99.90
13850;DHT22;6995;52.618;13.488;2023-07-31T14:28:42;21.30;99.90
13850;DHT22;6995;52.618;13.488;2023-07-31T14:31:08;21.30;99.90
13850;DHT22;6995;52.618;13.488;2023-07-31T14:33:33;21.20;99.90
13850;DHT22;6995;52.618;13.488;2023-07-31T14:35:59;21.20;99.90
13850;DHT22;6995;52.618;13.488;2023-07-31T14:38:24;21.40;99.90
13850;DHT22;6995;52.618;13.488;2023-07-31T14:40:51;21.50;99.90
13850;DHT22;6995;52.618;13.488;2023-07-31T14:43:16;21.50;99.90
13850;DHT22;6995;52.618;13.488;2023-07-31T14:45:42;21.60;99.90
13850;DHT22;6995;52.618;13.488;2023-07-31T14:48:07;21.40;99.90
13850;DHT22;6995;52.618;13.488;2023-07-31T14:50:33;21.20;99.90
13850;DHT22;6995;52.618;13.488;2023-07-31T14:52:59;21.30;99.90
13850;DHT22;6995;52.618;13.488;2023-07-31T14:55:25;21.30;99.90
13850;DHT22;6995;52.618;13.488;2023-07-31T14:57:51;21.20;99.90
13850;DHT22;6995;52.618;13.488;2023-07-31T15:00:16;21.30;99.90
13850;DHT22;6995;52.618;13.488;2023-07-31T15:02:42;21.30;99.90
13850;DHT22;6995;52.618;13.488;2023-07-31T15:05:09;21.30;99.90
13850;DHT22;6995;52.618;13.488;2023-07-31T15:07:34;21.20;99.90
13850;DHT22;6995;52.618;13.488;2023-07-31T15:10:02;21.30;99.90
13850;DHT22;6995;52.618;13.488;2023-07-31T15:12:28;21.30;99.90
13850;DHT22;6995;52.618;13.488;2023-07-31T15:14:54;21.40;99.90
13850;DHT22;6995;52.618;13.488;2023-07-31T15:17:19;21.50;99.90
13850;DHT22;6995;52.618;13.488;2023-07-31T15:19:45;21.50;99.90
13850;DHT22;6995;52.618;13.488;2023-07-31T15:22:11;21.60;99.90
13850;DHT22;6995;52.618;13.488;2023-07-31T15:24:36;21.50;99.90
13850;DHT22;6995;52.618;13.488;2023-07-31T15:27:02;21.60;99.90
13850;DHT22;6995;52.618;13.488;2023-07-31T15:29:28;21.70;99.90
13850;DHT22;6995;52.618;13.488;2023-07-31T15:31:54;21.90;99.90
13850;DHT22;6995;52.618;13.488;2023-07-31T15:34:20;22.10;96.50
13850;DHT22;6995;52.618;13.488;2023-07-31T15:36:46;22.10;90.80
13850;DHT22;6995;52.618;13.488;2023-07-31T15:39:12;22.10;89.10
13850;DHT22;6995;52.618;13.488;2023-07-31T15:41:39;21.90;89.50
13850;DHT22;6995;52.618;13.488;2023-07-31T15:44:05;21.90;93.30
13850;DHT22;6995;52.618;13.488;2023-07-31T15:46:31;21.60;96.10
13850;DHT22;6995;52.618;13.488;2023-07-31T15:48:56;21.60;99.90
13850;DHT22;6995;52.618;13.488;2023-07-31T15:51:23;21.30;99.90